createdAt,value
2023-02-06T00:00:51.231Z,28.11
2023-02-06T00:01:51.223Z,28.09
2023-02-06T00:02:51.235Z,28.11
2023-02-06T00:03:51.248Z,28.11
2023-02-06T00:04:51.249Z,28.11
2023-02-06T03:08:53.365Z,27.96
2023-02-06T03:09:53.399Z,27.98
2023-02-06T03:10:53.389Z,27.97
2023-02-06T03:11:53.397Z,27.99
2023-02-06T03:12:53.413Z,27.99
2023-02-06T03:13:53.435Z,28.02
2023-02-06T03:14:53.422Z,28.00
2023-02-06T03:15:53.432Z,28.02
2023-02-06T03:16:53.462Z,28.01
2023-02-06T03:17:53.460Z,28.01
2023-02-06T03:18:53.485Z,27.99
2023-02-06T03:19:53.508Z,27.99
2023-02-06T03:20:53.509Z,27.99
2023-02-06T03:21:53.530Z,28.04
2023-02-06T03:22:53.529Z,28.03
2023-02-06T03:23:53.535Z,28.01
2023-02-06T03:24:53.566Z,28.01
2023-02-06T03:25:53.575Z,28.01
2023-02-06T03:26:53.587Z,27.98
2023-02-06T03:27:53.632Z,27.98
2023-02-06T03:28:53.615Z,27.93
2023-02-06T03:29:53.625Z,27.93
2023-02-06T03:30:53.649Z,27.89
2023-02-06T03:31:53.674Z,27.90
2023-02-06T03:32:53.652Z,27.87
2023-02-06T03:33:53.653Z,27.86
2023-02-06T03:34:53.673Z,27.85
2023-02-06T03:35:53.670Z,27.81
2023-02-06T03:36:53.666Z,27.77
2023-02-06T03:37:53.649Z,27.77
2023-02-06T03:38:53.664Z,27.75
2023-02-06T03:39:53.651Z,27.73
2023-02-06T03:40:53.648Z,27.67
2023-02-06T03:41:53.655Z,27.68
2023-02-06T03:42:53.659Z,27.65
2023-02-06T03:43:53.655Z,27.59
2023-02-06T03:44:53.652Z,27.58
2023-02-06T03:45:53.671Z,27.57
2023-02-06T03:46:53.651Z,27.56
2023-02-06T03:47:53.631Z,27.53
2023-02-06T03:48:53.632Z,27.55
2023-02-06T03:49:53.619Z,27.51
2023-02-06T03:50:53.609Z,27.51
2023-02-06T03:51:53.598Z,27.47
2023-02-06T03:52:53.581Z,27.46
2023-02-06T03:53:53.605Z,27.48
2023-02-06T03:54:53.602Z,27.45
2023-02-06T03:55:53.584Z,27.43
2023-02-06T03:56:53.585Z,27.42
2023-02-06T03:57:53.607Z,27.42
2023-02-06T06:35:58.164Z,32.07
2023-02-06T06:36:58.163Z,32.51
2023-02-06T06:37:58.187Z,32.89
2023-02-06T06:38:58.222Z,33.12
2023-02-06T06:39:58.245Z,33.16
2023-02-06T06:40:58.276Z,33.25
2023-02-06T06:41:58.302Z,33.08
2023-02-06T06:42:58.301Z,33.45
2023-02-06T06:43:58.977Z,33.48
2023-02-06T06:44:58.362Z,33.70
2023-02-06T06:45:58.420Z,33.71
2023-02-06T06:46:58.406Z,33.79
2023-02-06T06:47:58.428Z,33.94
2023-02-06T06:48:58.438Z,33.96
2023-02-06T06:49:58.462Z,34.12
2023-02-06T06:50:58.495Z,34.24
2023-02-06T06:51:58.490Z,34.37
2023-02-06T06:52:58.506Z,34.55
2023-02-06T06:53:58.520Z,34.61
2023-02-06T06:54:58.524Z,34.71
2023-02-06T06:55:58.531Z,34.90
2023-02-06T06:56:58.547Z,35.15
2023-02-06T06:57:58.520Z,35.02
2023-02-06T06:58:58.530Z,35.24
2023-02-06T06:59:58.537Z,35.55
2023-02-06T07:00:58.540Z,35.72
2023-02-06T07:01:58.504Z,35.88
2023-02-06T07:02:58.500Z,35.96
2023-02-06T07:03:58.489Z,36.19
2023-02-06T07:04:58.469Z,36.14
2023-02-06T07:05:58.461Z,36.38
2023-02-06T07:06:58.460Z,36.61
2023-02-06T07:07:59.411Z,36.81
2023-02-06T07:08:58.432Z,36.92
2023-02-06T07:09:58.415Z,37.12
2023-02-06T07:10:58.410Z,37.25
2023-02-06T07:11:58.415Z,37.54
2023-02-06T07:12:58.414Z,37.65
2023-02-06T07:13:58.395Z,38.15
2023-02-06T07:14:58.424Z,37.73
2023-02-06T07:15:58.499Z,31.52
2023-02-06T07:16:58.418Z,29.58
2023-02-06T07:17:58.472Z,28.74
2023-02-06T07:18:58.504Z,28.55
2023-02-06T07:19:58.506Z,29.94
2023-02-06T07:20:58.521Z,32.35
2023-02-06T07:21:58.526Z,33.63
2023-02-06T07:22:58.583Z,34.73
2023-02-06T07:23:58.627Z,34.86
2023-02-06T07:24:58.704Z,35.08
2023-02-06T07:25:58.741Z,35.06
2023-02-06T07:26:58.792Z,33.30
2023-02-06T07:27:59.437Z,30.71
2023-02-06T07:28:58.879Z,30.00
2023-02-06T07:29:58.886Z,30.26
2023-02-06T07:30:58.916Z,30.39
2023-02-06T07:31:58.956Z,30.36
2023-02-06T07:32:58.965Z,30.32
2023-02-06T07:33:59.001Z,30.53
2023-02-06T07:34:59.033Z,30.94
2023-02-06T07:35:59.028Z,31.71
2023-02-06T07:36:59.920Z,32.03
2023-02-06T07:37:59.071Z,32.04
2023-02-06T07:38:59.077Z,32.22
2023-02-06T07:39:59.115Z,32.41
2023-02-06T07:40:59.154Z,32.70
2023-02-06T07:41:59.224Z,32.72
2023-02-06T07:42:59.269Z,32.75
2023-02-06T07:43:59.321Z,32.86
2023-02-06T07:44:59.996Z,32.87
2023-02-06T07:45:59.491Z,33.10
2023-02-06T07:46:59.456Z,32.99
2023-02-06T07:47:59.478Z,33.16
2023-02-06T07:48:59.494Z,33.08
2023-02-06T07:49:59.529Z,33.31
2023-02-06T07:50:59.545Z,33.20
2023-02-06T07:51:59.565Z,33.29
2023-02-06T07:52:59.562Z,33.54
2023-02-06T07:53:59.572Z,33.81
2023-02-06T07:54:59.585Z,33.81
2023-02-06T07:55:59.581Z,33.94
2023-02-06T07:56:59.584Z,33.96
2023-02-06T07:57:59.570Z,34.13
2023-02-06T07:58:59.552Z,34.33
2023-02-06T07:59:59.549Z,34.60
2023-02-06T08:00:59.583Z,34.85
2023-02-06T08:01:59.535Z,34.69
2023-02-06T08:03:59.513Z,35.05
2023-02-06T08:04:59.480Z,35.22
2023-02-06T08:05:59.589Z,35.20
2023-02-06T08:06:59.445Z,35.51
2023-02-06T08:07:59.432Z,35.54
2023-02-06T08:08:59.406Z,35.64
2023-02-06T08:10:59.400Z,36.03
2023-02-06T08:11:59.394Z,36.10
2023-02-06T08:12:59.358Z,36.34
2023-02-06T08:13:59.933Z,36.32
2023-02-06T08:14:59.396Z,36.57
2023-02-06T08:15:59.424Z,36.72
2023-02-06T08:16:59.458Z,36.82
2023-02-06T08:17:59.490Z,36.72
2023-02-06T08:18:59.496Z,37.05
2023-02-06T08:19:59.526Z,36.82
2023-02-06T08:20:59.541Z,36.62
2023-02-06T08:21:59.539Z,36.49
2023-02-06T08:22:59.522Z,36.57
2023-02-06T08:24:59.563Z,36.41
2023-02-06T08:26:59.500Z,36.32
2023-02-06T08:27:59.507Z,36.26
2023-02-06T08:28:59.485Z,36.25
2023-02-06T08:29:59.578Z,36.18
2023-02-06T08:30:59.679Z,36.16
2023-02-06T08:31:59.580Z,36.07
2023-02-06T08:32:59.530Z,36.05
2023-02-06T08:33:59.554Z,36.00
2023-02-06T09:06:59.438Z,35.17
2023-02-06T09:16:59.864Z,34.83
2023-02-06T09:17:59.909Z,34.54
2023-02-06T09:18:59.944Z,34.37
2023-02-06T09:20:00.004Z,34.28
2023-02-06T14:43:03.568Z,39.02
2023-02-06T14:44:03.588Z,39.01
2023-02-06T14:45:03.616Z,38.99
2023-02-06T14:46:08.017Z,38.98
2023-02-06T14:47:03.620Z,38.94
2023-02-06T14:48:03.600Z,38.90
2023-02-06T14:49:03.579Z,38.87
2023-02-06T14:50:03.584Z,38.86
2023-02-06T14:51:03.537Z,38.84
2023-02-06T14:52:03.517Z,38.81
2023-02-06T14:53:03.508Z,38.79
2023-02-06T14:54:03.468Z,38.76
2023-02-06T17:00:08.100Z,36.72
2023-02-06T17:01:08.135Z,36.72
2023-02-06T17:02:08.164Z,36.69
2023-02-06T17:03:08.176Z,36.68
2023-02-06T17:04:08.194Z,36.62
2023-02-06T17:05:08.239Z,36.61
2023-02-06T17:06:08.267Z,36.57
2023-02-06T17:07:08.286Z,36.61
2023-02-06T17:08:08.312Z,36.55
2023-02-06T17:09:08.341Z,36.54
2023-02-06T17:10:08.365Z,36.51
2023-02-06T17:11:08.405Z,36.44
2023-02-06T17:12:08.451Z,36.45
2023-02-06T17:13:08.471Z,36.46
2023-02-06T17:14:08.488Z,36.43
2023-02-06T17:15:08.506Z,36.40
2023-02-06T17:16:08.563Z,36.38
2023-02-06T17:17:08.580Z,36.38
2023-02-06T17:18:08.622Z,36.34
2023-02-06T17:19:08.665Z,36.34
2023-02-06T17:20:08.671Z,36.33
2023-02-06T17:21:08.718Z,36.26
2023-02-06T17:22:08.740Z,36.26
2023-02-06T17:23:08.769Z,36.24
2023-02-06T17:24:08.803Z,36.23
2023-02-06T17:25:08.837Z,36.21
2023-02-06T17:26:08.861Z,36.20
2023-02-06T17:27:08.894Z,36.14
2023-02-06T18:44:11.801Z,34.74
2023-02-06T18:46:11.936Z,34.70
2023-02-06T18:50:12.103Z,34.68
2023-02-06T18:51:12.138Z,34.66
2023-02-06T18:52:12.179Z,34.63
2023-02-06T18:53:12.209Z,34.64
2023-02-06T18:54:12.256Z,34.62
2023-02-06T18:55:12.288Z,34.59
2023-02-06T18:56:12.318Z,34.57
2023-02-06T18:57:12.339Z,34.57
2023-02-06T18:58:12.373Z,34.54
2023-02-06T18:59:12.414Z,34.51
2023-02-06T19:00:12.469Z,34.53
2023-02-06T19:01:12.536Z,34.49
2023-02-06T19:02:12.626Z,34.50
2023-02-06T19:03:12.597Z,34.46
2023-02-06T19:04:12.650Z,34.47
2023-02-06T19:05:12.715Z,34.44
2023-02-06T19:06:12.730Z,34.45
2023-02-06T19:07:12.792Z,34.43
2023-02-06T19:08:12.827Z,34.41
2023-02-06T19:10:12.932Z,34.38
2023-02-06T19:11:12.947Z,34.38
2023-02-06T19:12:12.986Z,34.35
2023-02-06T19:13:13.023Z,34.32
2023-02-06T19:14:13.046Z,34.30
2023-02-06T19:15:13.113Z,34.31
2023-02-06T19:16:13.176Z,34.28
2023-02-06T19:17:13.193Z,34.26
2023-02-06T19:18:13.239Z,34.25
2023-02-06T19:19:13.305Z,34.26
2023-02-06T19:20:13.331Z,34.24
2023-02-06T19:21:13.361Z,34.22
2023-02-06T19:22:13.398Z,34.21
2023-02-06T19:23:13.437Z,34.20
2023-02-06T19:24:13.498Z,34.16
2023-02-06T19:25:14.743Z,34.15
2023-02-06T19:26:13.586Z,34.11
2023-02-06T19:27:13.624Z,34.11
2023-02-06T19:28:13.747Z,34.10
2023-02-06T19:29:13.706Z,34.10
2023-02-06T19:30:13.760Z,34.10
2023-02-06T19:31:13.856Z,34.08
2023-02-06T19:32:13.840Z,34.06
2023-02-06T19:33:13.856Z,34.06
2023-02-06T19:34:13.845Z,34.06
2023-02-06T19:35:13.890Z,34.03
2023-02-06T19:36:13.923Z,34.01
2023-02-06T19:37:13.997Z,33.98
2023-02-06T19:38:14.008Z,33.99
2023-02-06T19:39:14.058Z,33.95
2023-02-06T19:40:14.040Z,33.92
2023-02-06T19:41:14.055Z,33.94
2023-02-06T19:42:14.058Z,33.90
2023-02-06T19:43:14.080Z,33.86
2023-02-06T19:44:14.072Z,33.84
2023-02-06T19:45:14.110Z,33.85
2023-02-06T19:46:14.150Z,33.82
2023-02-06T19:47:14.166Z,33.83
2023-02-06T19:48:14.181Z,33.82
2023-02-06T19:49:14.184Z,33.82
2023-02-06T19:50:14.542Z,33.81
2023-02-06T19:51:14.210Z,33.78
2023-02-06T19:52:14.233Z,33.80
2023-02-06T19:53:16.891Z,33.71
2023-02-06T19:54:14.185Z,33.72
2023-02-06T19:55:14.202Z,33.69
2023-02-06T19:56:14.176Z,33.68
2023-02-06T19:57:14.160Z,33.67
2023-02-06T19:58:14.162Z,33.65
2023-02-06T19:59:14.154Z,33.63
2023-02-06T20:00:14.152Z,33.61
2023-02-06T20:01:14.181Z,33.63
2023-02-06T20:02:14.139Z,33.61
2023-02-06T20:03:14.159Z,33.58
2023-02-06T20:04:14.134Z,33.56
2023-02-06T20:05:14.133Z,33.57
2023-02-06T20:06:14.116Z,33.55
2023-02-06T20:07:14.113Z,33.52
2023-02-06T20:08:14.103Z,33.53
2023-02-06T20:09:14.090Z,33.53
2023-02-06T20:10:14.073Z,33.50
2023-02-06T20:11:14.100Z,33.50
2023-02-06T20:12:14.061Z,33.48
2023-02-06T20:13:14.067Z,33.43
2023-02-06T20:14:14.044Z,33.40
2023-02-06T20:15:14.033Z,33.41
2023-02-06T20:16:14.045Z,33.40
2023-02-06T20:17:14.036Z,33.34
2023-02-06T20:18:14.024Z,33.34
2023-02-06T20:19:14.023Z,33.34
2023-02-06T20:20:14.019Z,33.33
2023-02-06T20:21:14.013Z,33.33
2023-02-06T20:22:14.007Z,33.32
2023-02-06T20:23:14.011Z,33.30
2023-02-06T20:24:14.003Z,33.31
2023-02-06T20:25:14.005Z,33.27
2023-02-06T20:26:13.991Z,33.23
2023-02-06T20:27:13.978Z,33.24
2023-02-06T20:28:13.987Z,33.23
2023-02-06T20:29:13.965Z,33.19
2023-02-06T20:30:13.973Z,33.21
2023-02-06T20:31:14.083Z,33.21
2023-02-06T20:32:13.949Z,33.20
2023-02-06T20:33:13.961Z,33.18
2023-02-06T20:34:13.937Z,33.14
2023-02-06T20:35:13.953Z,33.15
2023-02-06T20:36:13.953Z,33.12
2023-02-06T20:37:13.935Z,33.10
2023-02-06T20:38:13.937Z,33.11
2023-02-06T20:39:13.935Z,33.09
2023-02-06T20:40:13.928Z,33.04
2023-02-06T20:41:13.912Z,33.05
2023-02-06T20:42:13.929Z,33.02
2023-02-06T20:43:13.913Z,33.00
2023-02-06T20:44:13.913Z,32.97
2023-02-06T20:45:13.897Z,32.99
2023-02-06T20:46:13.945Z,32.98
2023-02-06T20:47:13.886Z,32.96
2023-02-06T20:48:13.881Z,32.93
2023-02-06T20:49:13.863Z,32.92
2023-02-06T20:50:13.862Z,32.91
2023-02-06T20:51:13.876Z,32.91
2023-02-06T20:52:13.858Z,32.85
2023-02-06T20:53:13.844Z,32.86
2023-02-06T20:54:13.873Z,32.85
2023-02-06T20:55:13.848Z,32.81
2023-02-06T20:56:13.829Z,32.80
2023-02-06T20:57:13.823Z,32.81
2023-02-06T20:58:13.802Z,32.80
2023-02-06T20:59:13.804Z,32.81
2023-02-06T21:00:13.812Z,32.76
2023-02-06T21:01:13.855Z,32.77
2023-02-06T21:02:13.800Z,32.74
2023-02-06T21:03:13.777Z,32.72
2023-02-06T21:04:13.768Z,32.68
2023-02-06T21:05:13.755Z,32.70
2023-02-06T21:06:13.743Z,32.69
2023-02-06T21:07:13.742Z,32.66
2023-02-06T21:08:13.717Z,32.66
2023-02-06T21:09:13.703Z,32.63
2023-02-06T21:10:13.695Z,32.63
2023-02-06T21:11:13.672Z,32.62
2023-02-06T21:12:13.674Z,32.61
2023-02-06T21:13:13.669Z,32.60
2023-02-06T21:14:13.644Z,32.55
2023-02-06T21:15:13.645Z,32.54
2023-02-06T21:16:13.766Z,32.51
2023-02-06T21:17:13.611Z,32.53
2023-02-06T21:18:13.581Z,32.49
2023-02-06T21:19:13.592Z,32.49
2023-02-06T21:20:13.576Z,32.48
2023-02-06T21:21:13.556Z,32.49
2023-02-06T21:22:13.547Z,32.47
2023-02-06T21:23:13.531Z,32.44
2023-02-06T21:24:13.527Z,32.40
2023-02-06T21:25:13.520Z,32.40
2023-02-06T21:26:13.509Z,32.39
2023-02-06T21:27:13.502Z,32.40
2023-02-06T21:28:13.511Z,32.40
2023-02-06T21:29:13.480Z,32.37
2023-02-06T21:30:13.472Z,32.33
2023-02-06T21:31:13.507Z,32.34
2023-02-06T21:32:14.545Z,32.32
2023-02-06T21:33:13.439Z,32.36
2023-02-06T21:34:13.447Z,32.31
2023-02-06T21:35:13.417Z,32.31
2023-02-06T21:36:13.414Z,32.31
2023-02-06T21:37:13.421Z,32.28
2023-02-06T21:38:13.395Z,32.24
2023-02-06T21:39:13.385Z,32.23
2023-02-06T21:40:13.366Z,32.18
2023-02-06T21:41:13.359Z,32.18
2023-02-06T21:42:14.266Z,32.20
2023-02-06T21:43:13.353Z,32.21
2023-02-06T21:44:13.344Z,32.19
2023-02-06T21:45:13.332Z,32.15
2023-02-06T21:46:13.404Z,32.16
2023-02-06T21:47:13.308Z,32.16
2023-02-06T21:48:13.306Z,32.18
2023-02-06T21:49:13.291Z,32.12
2023-02-06T21:50:13.281Z,32.11
2023-02-06T21:51:13.292Z,32.09
2023-02-06T21:52:13.278Z,32.09
2023-02-06T21:53:13.271Z,32.11
2023-02-06T21:54:13.266Z,32.10
2023-02-06T21:55:13.257Z,32.06
2023-02-06T21:56:13.244Z,32.06
2023-02-06T21:57:13.256Z,32.05
2023-02-06T23:08:12.551Z,31.35
2023-02-06T23:09:12.536Z,31.35
2023-02-06T23:10:12.532Z,31.34
2023-02-06T23:11:12.527Z,31.29
2023-02-06T23:12:12.525Z,31.29
2023-02-06T23:13:12.511Z,31.30
2023-02-06T23:14:12.516Z,31.29
2023-02-06T23:15:12.505Z,31.27
2023-02-06T23:16:12.533Z,31.23
2023-02-06T23:17:12.477Z,31.28
2023-02-06T23:18:12.477Z,31.25
2023-02-06T23:19:12.476Z,31.25
2023-02-06T23:20:12.472Z,31.21
2023-02-06T23:21:12.477Z,31.25
2023-02-06T23:22:12.457Z,31.19
2023-02-06T23:23:12.462Z,31.23
2023-02-06T23:24:12.482Z,31.15
2023-02-06T23:25:12.451Z,31.19
2023-02-06T23:26:12.448Z,31.16
2023-02-06T23:27:12.443Z,31.14
2023-02-06T23:28:12.543Z,31.11
2023-02-06T23:29:12.451Z,31.12
2023-02-06T23:30:12.463Z,31.11
2023-02-06T23:31:12.456Z,31.05
2023-02-06T23:32:12.440Z,31.08
2023-02-06T23:33:12.433Z,31.07
2023-02-06T23:34:12.436Z,31.04
2023-02-06T23:35:12.415Z,31.08
2023-02-06T23:36:12.419Z,31.06
2023-02-06T23:37:12.415Z,31.07
2023-02-06T23:38:12.386Z,31.06
2023-02-06T23:39:12.382Z,31.00
2023-02-06T23:40:12.375Z,31.03
2023-02-06T23:41:12.360Z,31.03
2023-02-06T23:42:12.346Z,31.03
2023-02-06T23:43:12.354Z,31.03
2023-02-06T23:44:12.337Z,31.00
2023-02-06T23:45:12.328Z,31.01
2023-02-06T23:47:12.290Z,30.97
2023-02-06T23:48:12.299Z,31.00
2023-02-06T23:49:12.284Z,30.93
